createdAt,value
2023-11-24T00:01:52.813Z,93973.06
2023-11-24T00:04:19.674Z,93972.31
2023-11-24T00:06:46.487Z,93975.06
2023-11-24T00:09:13.227Z,93966.19
2023-11-24T00:11:40.151Z,93969.63
2023-11-24T00:14:07.017Z,93969.47
2023-11-24T00:16:33.832Z,93973.03
2023-11-24T00:19:00.621Z,93976.13
2023-11-24T00:21:27.386Z,93984.53
2023-11-24T00:23:54.146Z,93993.03
2023-11-24T00:26:22.277Z,93989.81
2023-11-24T00:28:49.176Z,93991.41
2023-11-24T00:31:16.376Z,93994.63
2023-11-24T00:33:43.362Z,93984.78
2023-11-24T00:36:12.219Z,93976.44
2023-11-24T00:38:38.991Z,93973.31
2023-11-24T00:41:09.520Z,93962.34
2023-11-24T00:43:39.955Z,93955.66
2023-11-24T00:46:07.506Z,93953.72
2023-11-24T00:48:35.030Z,93955.25
2023-11-24T00:51:01.769Z,93954.53
2023-11-24T00:53:28.549Z,93952.47
2023-11-24T00:55:55.304Z,93950.94
2023-11-24T00:58:22.060Z,93940.91
2023-11-24T01:00:49.176Z,93935.94
2023-11-24T01:03:16.715Z,93924.72
2023-11-24T01:05:43.418Z,93927.06
2023-11-24T01:08:10.119Z,93920.22
2023-11-24T01:10:36.815Z,93918.47
2023-11-24T01:13:03.856Z,93918.66
2023-11-24T01:15:30.652Z,93908.25
2023-11-24T01:17:58.525Z,93902.03
2023-11-24T01:20:26.382Z,93895.13
2023-11-24T01:22:53.166Z,93881.13
2023-11-24T01:25:19.998Z,93889.75
2023-11-24T01:27:47.270Z,93885.19
2023-11-24T01:30:14.186Z,93877.13
2023-11-24T01:32:40.920Z,93878.34
2023-11-24T01:35:08.180Z,93878.38
2023-11-24T01:37:35.157Z,93890.88
2023-11-24T01:40:02.113Z,93876.88
2023-11-24T01:42:28.837Z,93876.16
2023-11-24T01:44:55.656Z,93856.72
2023-11-24T01:47:22.562Z,93849.75
2023-11-24T01:49:50.831Z,93836.56
2023-11-24T01:52:17.717Z,93824.09
2023-11-24T01:54:46.862Z,93821.78
2023-11-24T01:57:14.093Z,93805.03
2023-11-24T01:59:40.943Z,93798.91
2023-11-24T02:02:07.770Z,93809.38
2023-11-24T02:04:34.605Z,93805.84
2023-11-24T02:07:03.555Z,93813.66
2023-11-24T02:09:31.446Z,93826.84
2023-11-24T02:11:58.342Z,93810.13
2023-11-24T02:14:25.158Z,93809.34
2023-11-24T02:16:51.897Z,93798.84
2023-11-24T02:19:18.664Z,93808.25
2023-11-24T02:21:46.448Z,93801.19
2023-11-24T02:24:15.044Z,93815.22
2023-11-24T02:26:41.736Z,93801.59
2023-11-24T02:29:09.716Z,93788.00
2023-11-24T02:31:36.623Z,93782.97
2023-11-24T02:34:03.892Z,93788.38
2023-11-24T02:36:32.116Z,93772.03
2023-11-24T02:38:58.821Z,93781.41
2023-11-24T02:41:26.707Z,93774.41
2023-11-24T02:43:53.366Z,93773.69
2023-11-24T02:46:20.052Z,93774.78
2023-11-24T02:48:48.328Z,93769.38
2023-11-24T02:51:15.903Z,93775.16
2023-11-24T02:53:43.684Z,93769.75
2023-11-24T02:56:10.378Z,93768.22
2023-11-24T02:58:38.048Z,93768.59
2023-11-24T03:01:06.805Z,93763.53
2023-11-24T03:03:34.057Z,93756.09
2023-11-24T03:06:07.916Z,93762.75
2023-11-24T03:08:35.320Z,93753.00
2023-11-24T03:11:07.013Z,93750.22
2023-11-24T03:13:35.402Z,93744.00
2023-11-24T03:16:04.789Z,93735.44
2023-11-24T03:18:31.684Z,93732.72
2023-11-24T03:20:58.586Z,93721.38
2023-11-24T03:23:25.346Z,93727.63
2023-11-24T03:25:52.102Z,93718.69
2023-11-24T03:28:19.864Z,93721.00
2023-11-24T03:30:47.646Z,93721.00
2023-11-24T03:33:17.372Z,93716.72
2023-11-24T03:35:44.135Z,93711.69
2023-11-24T03:38:10.887Z,93703.53
2023-11-24T03:40:37.707Z,93707.44
2023-11-24T03:43:04.513Z,93698.09
2023-11-24T03:45:31.463Z,93697.25
2023-11-24T03:47:58.371Z,93701.16
2023-11-24T03:50:25.229Z,93696.16
2023-11-24T03:52:52.069Z,93681.47
2023-11-24T03:55:18.774Z,93676.03
2023-11-24T03:57:47.193Z,93672.94
2023-11-24T04:00:15.022Z,93674.09
2023-11-24T04:02:42.936Z,93673.31
2023-11-24T04:05:13.235Z,93660.94
2023-11-24T04:07:40.586Z,93660.50
2023-11-24T04:10:08.458Z,93657.44
2023-11-24T04:12:35.390Z,93653.56
2023-11-24T04:15:02.484Z,93659.41
2023-11-24T04:17:29.201Z,93657.84
2023-11-24T04:19:55.921Z,93648.16
2023-11-24T04:22:22.636Z,93649.31
2023-11-24T04:24:49.387Z,93638.44
2023-11-24T04:27:16.087Z,93641.56
2023-11-24T04:29:42.801Z,93633.03
2023-11-24T04:32:10.766Z,93639.25
2023-11-24T04:34:37.763Z,93651.69
2023-11-24T04:37:04.873Z,93640.81
2023-11-24T04:39:31.711Z,93640.03
2023-11-24T04:41:58.433Z,93643.13
2023-11-24T04:44:25.125Z,93636.13
2023-11-24T04:46:51.890Z,93629.91
2023-11-24T04:49:18.980Z,93638.06
2023-11-24T04:51:46.830Z,93647.38
2023-11-24T04:54:13.681Z,93635.34
2023-11-24T04:56:40.525Z,93627.97
2023-11-24T04:59:07.345Z,93626.41
2023-11-24T05:01:34.099Z,93627.97
2023-11-24T05:04:01.508Z,93627.19
2023-11-24T05:06:28.345Z,93624.47
2023-11-24T05:08:55.118Z,93623.31
2023-11-24T05:11:22.603Z,93627.59
2023-11-24T05:13:50.466Z,93622.13
2023-11-24T05:16:17.977Z,93618.66
2023-11-24T05:18:44.894Z,93618.63
2023-11-24T05:21:11.680Z,93613.59
2023-11-24T05:23:38.827Z,93614.38
2023-11-24T05:26:05.925Z,93610.47
2023-11-24T05:28:34.262Z,93602.72
2023-11-24T05:31:01.090Z,93597.28
2023-11-24T05:33:27.868Z,93598.03
2023-11-24T05:35:54.499Z,93599.25
2023-11-24T05:38:21.239Z,93601.16
2023-11-24T05:40:48.005Z,93600.03
2023-11-24T05:43:15.203Z,93599.63
2023-11-24T05:45:41.998Z,93601.94
2023-11-24T05:48:08.790Z,93596.91
2023-11-24T05:50:35.811Z,93590.69
2023-11-24T05:53:02.477Z,93593.03
2023-11-24T05:55:29.129Z,93580.97
2023-11-24T05:57:57.794Z,93584.47
2023-11-24T06:00:24.620Z,93584.88
2023-11-24T06:02:51.756Z,93580.22
2023-11-24T06:05:18.519Z,93581.75
2023-11-24T06:07:46.021Z,93584.06
2023-11-24T06:10:13.646Z,93579.78
2023-11-24T06:12:40.558Z,93574.34
2023-11-24T06:15:09.713Z,93580.97
2023-11-24T06:17:36.636Z,93574.75
2023-11-24T06:20:05.039Z,93573.19
2023-11-24T06:22:31.794Z,93582.13
2023-11-24T06:24:58.579Z,93579.03
2023-11-24T06:27:25.360Z,93568.94
2023-11-24T06:29:52.008Z,93578.63
2023-11-24T06:32:18.653Z,93576.69
2023-11-24T06:34:45.343Z,93573.19
2023-11-24T06:37:12.091Z,93567.00
2023-11-24T06:39:39.742Z,93578.25
2023-11-24T06:42:06.689Z,93562.69
2023-11-24T06:44:33.985Z,93558.44
2023-11-24T06:47:02.231Z,93542.13
2023-11-24T06:49:30.854Z,93540.56
2023-11-24T06:51:58.153Z,93523.88
2023-11-24T06:54:25.010Z,93522.31
2023-11-24T06:56:51.840Z,93532.41
2023-11-24T06:59:18.752Z,93523.47
2023-11-24T07:01:45.774Z,93529.69
2023-11-24T07:04:12.774Z,93525.41
2023-11-24T07:06:40.524Z,93524.25
2023-11-24T07:09:09.136Z,93513.34
2023-11-24T07:11:37.662Z,93510.63
2023-11-24T07:14:04.647Z,93518.38
2023-11-24T07:16:31.731Z,93507.91
2023-11-24T07:18:59.418Z,93504.00
2023-11-24T07:21:26.647Z,93508.28
2023-11-24T07:23:53.342Z,93497.41
2023-11-24T07:26:20.610Z,93498.94
2023-11-24T07:28:47.311Z,93493.13
2023-11-24T07:31:16.210Z,93492.31
2023-11-24T07:33:43.013Z,93494.19
2023-11-24T07:36:10.345Z,93484.44
2023-11-24T07:38:37.390Z,93484.91
2023-11-24T07:41:05.916Z,93479.47
2023-11-24T07:43:35.102Z,93477.13
2023-11-24T07:46:03.018Z,93453.03
2023-11-24T07:48:29.737Z,93457.28
2023-11-24T07:50:56.694Z,93456.91
2023-11-24T07:53:23.375Z,93460.75
2023-11-24T07:55:50.446Z,93468.16
2023-11-24T07:58:17.482Z,93466.97
2023-11-24T08:00:45.516Z,93452.22
2023-11-24T08:03:14.006Z,93462.28
2023-11-24T08:05:41.250Z,93456.44
2023-11-24T08:08:07.948Z,93457.97
2023-11-24T08:10:34.687Z,93459.53
2023-11-24T08:13:01.414Z,93454.78
2023-11-24T08:15:28.213Z,93457.09
2023-11-24T08:17:54.922Z,93449.88
2023-11-24T08:20:22.152Z,93441.03
2023-11-24T08:22:49.058Z,93438.06
2023-11-24T08:25:17.039Z,93435.72
2023-11-24T08:27:45.663Z,93439.22
2023-11-24T08:30:12.730Z,93425.22
2023-11-24T08:32:43.547Z,93425.97
2023-11-24T08:35:12.269Z,93413.84
2023-11-24T08:37:39.082Z,93417.00
2023-11-24T08:40:06.615Z,93418.22
2023-11-24T08:42:34.783Z,93413.19
2023-11-24T08:45:01.692Z,93405.50
2023-11-24T08:47:29.021Z,93408.25
2023-11-24T08:49:58.517Z,93405.09
2023-11-24T08:52:27.259Z,93414.03
2023-11-24T08:54:54.208Z,93406.69
2023-11-24T08:57:21.009Z,93399.38
2023-11-24T08:59:47.706Z,93392.81
2023-11-24T09:02:14.538Z,93389.72
2023-11-24T09:04:41.470Z,93377.28
2023-11-24T09:07:10.185Z,93380.38
2023-11-24T09:09:37.851Z,93369.41
2023-11-24T09:12:06.799Z,93374.13
2023-11-24T09:14:39.517Z,93365.16
2023-11-24T09:17:06.363Z,93362.38
2023-11-24T09:19:33.789Z,93360.84
2023-11-24T09:22:01.962Z,93355.03
2023-11-24T09:24:28.766Z,93363.19
2023-11-24T09:26:56.299Z,93361.59
2023-11-24T09:29:23.206Z,93356.44
2023-11-24T09:31:49.974Z,93359.94
2023-11-24T09:34:17.875Z,93348.00
2023-11-24T09:36:46.671Z,93356.19
2023-11-24T09:39:19.284Z,93359.34
2023-11-24T09:41:55.655Z,93351.56
2023-11-24T09:44:22.606Z,93349.88
2023-11-24T09:46:52.728Z,93356.56
2023-11-24T09:49:21.558Z,93353.09
2023-11-24T09:51:48.342Z,93339.84
2023-11-24T09:54:15.312Z,93350.66
2023-11-24T09:56:44.343Z,93350.28
2023-11-24T09:59:11.212Z,93338.28
2023-11-24T10:01:38.492Z,93341.81
2023-11-24T10:04:11.137Z,93347.66
2023-11-24T10:06:43.443Z,93340.97
2023-11-24T10:09:16.092Z,93347.56
2023-11-24T10:11:42.828Z,93344.69
2023-11-24T10:14:13.200Z,93336.81
2023-11-24T10:16:43.069Z,93315.72
2023-11-24T10:19:19.360Z,93298.22
2023-11-24T10:21:49.346Z,93280.44
2023-11-24T10:24:16.177Z,93257.03
2023-11-24T10:26:45.373Z,93255.06
2023-11-24T10:29:12.495Z,93250.22
2023-11-24T10:31:39.980Z,93234.28
2023-11-24T10:34:07.438Z,93236.19
2023-11-24T10:36:36.765Z,93241.03
2023-11-24T10:39:10.147Z,93240.88
2023-11-24T10:41:47.220Z,93242.09
2023-11-24T10:44:18.471Z,93238.78
2023-11-24T10:46:49.344Z,93230.13
2023-11-24T10:49:41.910Z,93234.63
2023-11-24T10:52:20.608Z,93227.94
2023-11-24T10:54:57.454Z,93218.56
2023-11-24T10:57:26.877Z,93216.03
2023-11-24T10:59:55.938Z,93206.59
2023-11-24T11:02:22.799Z,93200.50
2023-11-24T11:05:02.423Z,93206.63
2023-11-24T11:07:36.995Z,93208.72
2023-11-24T11:10:13.769Z,93195.47
2023-11-24T11:12:52.920Z,93198.38
2023-11-24T11:15:29.403Z,93200.94
2023-11-24T11:18:15.676Z,93199.56
2023-11-24T11:20:45.366Z,93178.47
2023-11-24T11:23:18.284Z,93168.72
2023-11-24T11:25:52.130Z,93175.91
2023-11-24T11:28:19.458Z,93177.28
2023-11-24T11:30:50.060Z,93173.69
2023-11-24T11:33:21.093Z,93162.47
2023-11-24T11:35:53.509Z,93158.63
2023-11-24T11:38:51.349Z,93156.75
2023-11-24T11:41:48.279Z,93146.88
2023-11-24T11:44:27.482Z,93145.53
2023-11-24T11:47:16.398Z,93131.44
2023-11-24T11:49:44.080Z,93129.53
2023-11-24T11:52:14.817Z,93131.13
2023-11-24T11:54:41.933Z,93126.31
2023-11-24T11:57:08.972Z,93125.13
2023-11-24T11:59:35.943Z,93122.13
2023-11-24T12:02:03.188Z,93112.72
2023-11-24T12:04:30.381Z,93105.28
2023-11-24T12:06:57.258Z,93113.47
2023-11-24T12:09:25.545Z,93109.88
2023-11-24T12:11:52.516Z,93109.31
2023-11-24T12:14:19.221Z,93109.81
2023-11-24T12:16:46.027Z,93107.72
2023-11-24T12:19:12.854Z,93090.88
2023-11-24T12:21:43.194Z,93108.81
2023-11-24T12:24:15.378Z,93100.06
2023-11-24T12:26:46.141Z,93099.50
2023-11-24T12:29:14.741Z,93099.00
2023-11-24T12:31:43.617Z,93104.84
2023-11-24T12:34:21.505Z,93106.44
2023-11-24T12:36:56.024Z,93107.94
2023-11-24T12:39:31.800Z,93087.56
2023-11-24T12:41:59.196Z,93092.00
2023-11-24T12:44:35.292Z,93082.91
2023-11-24T12:47:15.632Z,93081.50
2023-11-24T12:50:01.256Z,93082.88
2023-11-24T12:52:36.379Z,93077.06
2023-11-24T12:55:08.735Z,93066.75
2023-11-24T12:57:36.639Z,93065.94
2023-11-24T13:00:11.125Z,93057.34
2023-11-24T13:02:39.371Z,93065.66
2023-11-24T13:05:08.973Z,93076.88
2023-11-24T13:07:41.930Z,93073.34
2023-11-24T13:10:12.011Z,93060.97
2023-11-24T13:12:40.446Z,93085.44
2023-11-24T13:15:08.578Z,93074.03
2023-11-24T13:17:35.517Z,93081.38
2023-11-24T13:20:02.710Z,93072.50
2023-11-24T13:22:29.426Z,93076.13
2023-11-24T13:24:56.188Z,93059.81
2023-11-24T13:27:23.548Z,93059.50
2023-11-24T13:29:50.289Z,93066.25
2023-11-24T13:32:17.040Z,93088.50
2023-11-24T13:34:43.815Z,93093.31
2023-11-24T13:37:12.422Z,93091.16
2023-11-24T13:39:39.256Z,93090.50
2023-11-24T13:42:06.280Z,93092.47
2023-11-24T13:44:33.202Z,93083.81
2023-11-24T13:47:00.084Z,93082.25
2023-11-24T13:49:26.937Z,93090.78
2023-11-24T13:51:54.385Z,93080.13
2023-11-24T13:54:24.455Z,93093.72
2023-11-24T13:56:53.540Z,93070.25
2023-11-24T13:59:23.866Z,93073.94
2023-11-24T14:01:50.879Z,93077.09
2023-11-24T14:04:18.045Z,93086.06
2023-11-24T14:06:46.986Z,93079.41
2023-11-24T14:09:20.486Z,93070.63
2023-11-24T14:11:48.483Z,93082.88
2023-11-24T14:14:15.453Z,93079.22
2023-11-24T14:16:42.953Z,93083.47
2023-11-24T14:19:12.694Z,93099.00
2023-11-24T14:21:40.506Z,93079.59
2023-11-24T14:24:08.082Z,93068.03
2023-11-24T14:26:35.544Z,93052.16
2023-11-24T14:29:07.014Z,93055.69
2023-11-24T14:31:34.267Z,93065.47
2023-11-24T14:34:01.794Z,93059.25
2023-11-24T14:36:29.635Z,93068.56
2023-11-24T14:38:57.710Z,93066.94
2023-11-24T14:41:24.969Z,93059.59
2023-11-24T14:43:51.720Z,93069.25
2023-11-24T14:46:22.162Z,93050.22
2023-11-24T14:48:50.610Z,93048.31
2023-11-24T14:51:22.177Z,93044.59
2023-11-24T14:53:50.926Z,93047.19
2023-11-24T14:56:17.831Z,93042.63
2023-11-24T14:58:44.637Z,93042.56
2023-11-24T15:01:11.783Z,93040.72
2023-11-24T15:03:40.785Z,93047.25
2023-11-24T15:06:10.900Z,93057.31
2023-11-24T15:08:47.510Z,93052.31
2023-11-24T15:11:16.608Z,93055.84
2023-11-24T15:13:44.186Z,93051.59
2023-11-24T15:16:20.347Z,93054.63
2023-11-24T15:18:50.228Z,93036.09
2023-11-24T15:21:36.759Z,93060.13
2023-11-24T15:24:05.372Z,93062.81
2023-11-24T15:26:34.467Z,93055.81
2023-11-24T15:29:01.576Z,93050.78
2023-11-24T15:31:28.518Z,93058.13
2023-11-24T15:33:55.571Z,93051.53
2023-11-24T15:36:29.153Z,93056.63
2023-11-24T15:38:57.679Z,93040.75
2023-11-24T15:41:29.940Z,93043.47
2023-11-24T15:43:56.986Z,93033.78
2023-11-24T15:46:31.728Z,93042.69
2023-11-24T15:49:00.419Z,93046.19
2023-11-24T15:51:27.566Z,93056.25
2023-11-24T15:53:54.569Z,93046.56
2023-11-24T15:56:25.601Z,93042.28
2023-11-24T15:58:56.308Z,93057.41
2023-11-24T16:01:23.937Z,93042.69
2023-11-24T16:03:51.231Z,93051.59
2023-11-24T16:06:26.037Z,93063.59
2023-11-24T16:08:56.087Z,93057.38
2023-11-24T16:11:29.834Z,93054.31
2023-11-24T16:13:59.821Z,93048.50
2023-11-24T16:16:29.701Z,93055.06
2023-11-24T16:18:57.042Z,93034.19
2023-11-24T16:21:23.804Z,93045.00
2023-11-24T16:23:50.557Z,93038.44
2023-11-24T16:26:17.363Z,93045.75
2023-11-24T16:28:44.832Z,93042.28
2023-11-24T16:31:13.416Z,93041.13
2023-11-24T16:33:42.049Z,93042.69
2023-11-24T16:36:10.895Z,93044.25
2023-11-24T16:38:40.213Z,93038.81
2023-11-24T16:41:07.108Z,93037.66
2023-11-24T16:43:33.847Z,93035.34
2023-11-24T16:46:00.932Z,93043.09
2023-11-24T16:48:27.728Z,93046.16
2023-11-24T16:50:54.449Z,93038.81
2023-11-24T16:53:21.184Z,93058.56
2023-11-24T16:55:48.472Z,93045.00
2023-11-24T16:58:15.321Z,93051.19
2023-11-24T17:00:42.793Z,93061.25
2023-11-24T17:03:11.822Z,93061.28
2023-11-24T17:05:39.488Z,93061.66
2023-11-24T17:08:07.961Z,93062.44
2023-11-24T17:10:35.451Z,93055.44
2023-11-24T17:13:03.174Z,93068.25
2023-11-24T17:15:30.102Z,93071.72
2023-11-24T17:17:58.273Z,93070.44
2023-11-24T17:20:27.154Z,93075.34
2023-11-24T17:22:54.457Z,93081.03
2023-11-24T17:25:32.094Z,93096.78
2023-11-24T17:28:03.802Z,93126.94
2023-11-24T17:30:30.508Z,93108.53
2023-11-24T17:32:57.446Z,93113.81
2023-11-24T17:35:24.877Z,93104.09
2023-11-24T17:37:52.294Z,93111.84
2023-11-24T17:40:22.862Z,93118.69
2023-11-24T17:42:50.368Z,93119.41
2023-11-24T17:45:17.469Z,93135.81
2023-11-24T17:47:46.722Z,93125.25
2023-11-24T17:50:16.291Z,93129.53
2023-11-24T17:52:43.708Z,93123.69
2023-11-24T17:55:10.821Z,93131.78
2023-11-24T17:57:37.784Z,93145.41
2023-11-24T18:00:09.118Z,93145.84
2023-11-24T18:02:35.873Z,93143.50
2023-11-24T18:05:02.665Z,93141.19
2023-11-24T18:07:29.522Z,93143.41
2023-11-24T18:09:56.220Z,93127.88
2023-11-24T18:12:22.998Z,93140.38
2023-11-24T18:14:49.675Z,93126.94
2023-11-24T18:17:16.475Z,93131.25
2023-11-24T18:19:43.825Z,93124.91
2023-11-24T18:22:10.774Z,93132.06
2023-11-24T18:24:38.031Z,93138.81
2023-11-24T18:27:05.134Z,93134.34
2023-11-24T18:29:31.804Z,93124.50
2023-11-24T18:31:58.672Z,93135.94
2023-11-24T18:34:29.072Z,93129.41
2023-11-24T18:36:58.758Z,93135.13
2023-11-24T18:39:28.597Z,93134.72
2023-11-24T18:41:55.401Z,93130.78
2023-11-24T18:44:22.145Z,93148.53
2023-11-24T18:46:51.832Z,93140.00
2023-11-24T18:49:18.538Z,93139.69
2023-11-24T18:51:45.307Z,93145.84
2023-11-24T18:54:12.383Z,93148.94
2023-11-24T18:56:39.311Z,93142.78
2023-11-24T18:59:06.760Z,93151.72
2023-11-24T19:01:34.361Z,93138.47
2023-11-24T19:04:02.096Z,93155.56
2023-11-24T19:06:29.703Z,93157.59
2023-11-24T19:08:56.799Z,93158.84
2023-11-24T19:11:24.330Z,93159.94
2023-11-24T19:13:51.368Z,93143.78
2023-11-24T19:16:18.255Z,93155.78
2023-11-24T19:18:44.994Z,93156.63
2023-11-24T19:21:12.632Z,93167.59
2023-11-24T19:23:40.471Z,93175.38
2023-11-24T19:26:13.059Z,93169.38
2023-11-24T19:28:41.824Z,93171.31
2023-11-24T19:31:08.763Z,93173.75
2023-11-24T19:33:35.784Z,93175.03
2023-11-24T19:36:02.653Z,93175.47
2023-11-24T19:38:29.494Z,93176.53
2023-11-24T19:40:58.446Z,93166.97
2023-11-24T19:43:25.229Z,93167.38
2023-11-24T19:45:51.986Z,93168.66
2023-11-24T19:48:18.736Z,93181.22
2023-11-24T19:50:45.366Z,93181.63
2023-11-24T19:53:13.349Z,93182.03
2023-11-24T19:55:40.092Z,93176.97
2023-11-24T19:58:06.810Z,93175.19
2023-11-24T20:00:33.529Z,93161.31
2023-11-24T20:03:00.318Z,93167.84
2023-11-24T20:05:30.649Z,93159.59
2023-11-24T20:07:57.612Z,93168.84
2023-11-24T20:10:26.339Z,93169.13
2023-11-24T20:12:56.943Z,93162.84
2023-11-24T20:15:25.313Z,93161.38
2023-11-24T20:17:52.073Z,93162.09
2023-11-24T20:20:18.895Z,93165.97
2023-11-24T20:22:45.697Z,93175.47
2023-11-24T20:25:12.451Z,93172.72
2023-11-24T20:27:39.158Z,93179.44
2023-11-24T20:30:06.627Z,93175.22
2023-11-24T20:32:33.503Z,93166.25
2023-11-24T20:35:00.485Z,93174.00
2023-11-24T20:37:27.275Z,93178.19
2023-11-24T20:39:57.010Z,93159.72
2023-11-24T20:42:23.924Z,93161.41
2023-11-24T20:44:50.661Z,93154.25
2023-11-24T20:47:17.580Z,93145.69
2023-11-24T20:49:45.540Z,93140.19
2023-11-24T20:52:12.270Z,93130.78
2023-11-24T20:54:39.791Z,93135.25
2023-11-24T20:57:06.481Z,93126.72
2023-11-24T20:59:35.291Z,93127.25
2023-11-24T21:02:02.179Z,93124.97
2023-11-24T21:04:28.981Z,93130.81
2023-11-24T21:06:56.079Z,93138.41
2023-11-24T21:09:24.116Z,93133.56
2023-11-24T21:11:50.842Z,93133.44
2023-11-24T21:14:17.621Z,93132.06
2023-11-24T21:16:44.831Z,93133.16
2023-11-24T21:19:12.807Z,93132.34
2023-11-24T21:21:39.980Z,93126.41
2023-11-24T21:24:08.286Z,93127.94
2023-11-24T21:26:35.442Z,93129.50
2023-11-24T21:29:03.866Z,93124.97
2023-11-24T21:31:30.708Z,93124.25
2023-11-24T21:33:57.644Z,93119.34
2023-11-24T21:36:24.421Z,93118.44
2023-11-24T21:38:51.163Z,93115.28
2023-11-24T21:41:20.670Z,93126.13
2023-11-24T21:43:48.953Z,93105.22
2023-11-24T21:46:22.503Z,93116.53
2023-11-24T21:48:50.480Z,93111.94
2023-11-24T21:51:19.852Z,93111.00
2023-11-24T21:53:46.687Z,93105.84
2023-11-24T21:56:13.448Z,93104.81
2023-11-24T21:58:40.743Z,93094.66
2023-11-24T22:01:07.612Z,93097.16
2023-11-24T22:03:34.503Z,93098.66
2023-11-24T22:06:01.482Z,93096.56
2023-11-24T22:08:28.228Z,93092.28
2023-11-24T22:10:54.997Z,93101.75
2023-11-24T22:13:21.898Z,93101.44
2023-11-24T22:15:48.923Z,93106.91
2023-11-24T22:18:15.942Z,93097.84
2023-11-24T22:20:42.672Z,93095.97
2023-11-24T22:23:09.833Z,93095.84
2023-11-24T22:25:36.774Z,93083.63
2023-11-24T22:28:03.918Z,93085.94
2023-11-24T22:30:30.676Z,93094.38
2023-11-24T22:32:57.463Z,93085.72
2023-11-24T22:35:24.276Z,93082.44
2023-11-24T22:37:50.939Z,93066.31
2023-11-24T22:40:17.785Z,93084.38
2023-11-24T22:42:44.549Z,93078.81
2023-11-24T22:45:11.366Z,93085.72
2023-11-24T22:47:39.662Z,93083.75
2023-11-24T22:50:07.024Z,93090.31
2023-11-24T22:52:34.329Z,93094.53
2023-11-24T22:55:02.375Z,93094.22
2023-11-24T22:57:29.273Z,93100.44
2023-11-24T22:59:56.880Z,93106.19
2023-11-24T23:02:24.266Z,93105.28
2023-11-24T23:04:51.448Z,93110.53
2023-11-24T23:07:19.436Z,93106.31
2023-11-24T23:09:46.550Z,93114.38
2023-11-24T23:12:13.624Z,93106.59
2023-11-24T23:14:40.504Z,93111.78
2023-11-24T23:17:08.963Z,93113.38
2023-11-24T23:19:36.214Z,93095.34
2023-11-24T23:22:07.542Z,93093.53
2023-11-24T23:24:34.857Z,93094.44
2023-11-24T23:27:04.084Z,93098.75
2023-11-24T23:29:30.878Z,93101.00
2023-11-24T23:31:57.766Z,93106.66
2023-11-24T23:34:24.615Z,93108.38
2023-11-24T23:36:51.355Z,93093.34
2023-11-24T23:39:19.877Z,93099.72
2023-11-24T23:41:46.715Z,93101.56
2023-11-24T23:44:15.563Z,93090.22
2023-11-24T23:46:42.979Z,93085.22
2023-11-24T23:49:09.957Z,93075.53
2023-11-24T23:51:36.668Z,93084.66
2023-11-24T23:54:04.185Z,93097.19
2023-11-24T23:56:30.961Z,93102.13
2023-11-24T23:58:57.664Z,93097.59
